createdAt,value
2023-04-17T00:01:45.336Z,8.30
2023-04-17T00:04:22.125Z,8.30
2023-04-17T00:07:30.433Z,8.30
2023-04-17T00:10:11.096Z,8.20
2023-04-17T00:12:43.194Z,8.30
2023-04-17T00:15:15.326Z,8.30
2023-04-17T00:17:47.619Z,8.30
2023-04-17T00:20:19.781Z,8.30
2023-04-17T00:22:51.956Z,8.20
2023-04-17T00:25:24.160Z,8.30
2023-04-17T00:27:56.239Z,8.30
2023-04-17T00:30:28.294Z,8.30
2023-04-17T00:33:00.415Z,8.20
2023-04-17T00:35:32.558Z,8.30
2023-04-17T00:38:05.344Z,8.20
2023-04-17T00:40:39.442Z,8.20
2023-04-17T00:43:13.099Z,8.20
2023-04-17T00:45:48.054Z,8.20
2023-04-17T00:48:24.041Z,8.20
2023-04-17T00:51:02.030Z,8.20
2023-04-17T00:53:35.415Z,8.20
2023-04-17T00:56:07.872Z,8.20
2023-04-17T00:58:40.942Z,8.20
2023-04-17T01:01:13.611Z,8.20
2023-04-17T01:03:46.446Z,8.20
2023-04-17T01:06:20.322Z,8.20
2023-04-17T01:08:52.400Z,8.20
2023-04-17T01:11:24.510Z,8.20
2023-04-17T01:13:56.709Z,8.20
2023-04-17T01:16:30.795Z,8.20
2023-04-17T01:19:02.908Z,8.20
2023-04-17T01:21:35.058Z,8.10
2023-04-17T01:24:07.390Z,8.10
2023-04-17T01:26:41.566Z,8.10
2023-04-17T01:29:14.654Z,8.10
2023-04-17T01:31:46.680Z,8.10
2023-04-17T01:34:18.704Z,8.10
2023-04-17T01:36:50.797Z,8.10
2023-04-17T01:39:22.849Z,8.10
2023-04-17T01:41:54.882Z,8.10
2023-04-17T01:44:27.280Z,8.10
2023-04-17T01:46:59.224Z,8.10
2023-04-17T01:49:31.306Z,8.00
2023-04-17T01:52:03.375Z,8.10
2023-04-17T01:54:35.606Z,8.10
2023-04-17T01:57:07.733Z,8.10
2023-04-17T01:59:39.827Z,8.10
2023-04-17T02:02:12.189Z,8.10
2023-04-17T02:04:44.410Z,8.10
2023-04-17T02:08:13.849Z,8.10
2023-04-17T02:10:46.252Z,8.10
2023-04-17T02:13:18.345Z,8.10
2023-04-17T02:15:50.395Z,8.10
2023-04-17T02:18:22.546Z,8.10
2023-04-17T02:20:54.694Z,8.10
2023-04-17T02:23:26.711Z,8.10
2023-04-17T02:25:58.806Z,8.10
2023-04-17T02:28:31.076Z,8.00
2023-04-17T02:31:06.921Z,8.10
2023-04-17T02:33:39.363Z,8.10
2023-04-17T02:36:11.635Z,8.10
2023-04-17T02:38:43.660Z,8.10
2023-04-17T02:41:15.712Z,8.00
2023-04-17T02:43:47.707Z,8.00
2023-04-17T02:46:46.384Z,8.00
2023-04-17T02:49:18.318Z,8.00
2023-04-17T02:51:50.337Z,8.00
2023-04-17T02:54:22.345Z,8.00
2023-04-17T02:56:58.404Z,8.00
2023-04-17T02:59:30.475Z,8.00
2023-04-17T03:02:03.987Z,8.00
2023-04-17T03:04:38.762Z,8.00
2023-04-17T03:07:11.769Z,8.00
2023-04-17T03:09:47.421Z,8.00
2023-04-17T03:12:20.634Z,8.00
2023-04-17T03:14:52.647Z,8.00
2023-04-17T03:17:24.697Z,8.00
2023-04-17T03:19:56.856Z,8.00
2023-04-17T03:22:28.895Z,8.00
2023-04-17T03:25:01.019Z,8.00
2023-04-17T03:27:33.944Z,8.00
2023-04-17T03:30:07.154Z,8.00
2023-04-17T03:32:39.708Z,8.00
2023-04-17T03:35:12.788Z,8.00
2023-04-17T03:37:44.934Z,7.90
2023-04-17T03:40:17.174Z,8.00
2023-04-17T03:42:49.538Z,8.00
2023-04-17T03:45:21.554Z,8.00
2023-04-17T03:47:53.559Z,8.00
2023-04-17T03:50:25.667Z,8.00
2023-04-17T03:52:57.692Z,8.00
2023-04-17T03:55:29.793Z,7.90
2023-04-17T03:58:01.922Z,8.00
2023-04-17T04:00:34.027Z,8.00
2023-04-17T04:03:08.204Z,8.00
2023-04-17T04:05:40.667Z,8.00
2023-04-17T04:08:12.971Z,7.90
2023-04-17T04:10:45.722Z,8.00
2023-04-17T04:13:18.180Z,7.90
2023-04-17T04:15:50.432Z,7.90
2023-04-17T04:18:22.617Z,7.90
2023-04-17T04:20:54.930Z,8.00
2023-04-17T04:23:28.198Z,8.00
2023-04-17T04:26:02.008Z,8.00
2023-04-17T04:28:34.280Z,8.00
2023-04-17T04:31:07.069Z,7.90
2023-04-17T04:33:40.668Z,8.00
2023-04-17T04:36:20.237Z,8.00
2023-04-17T04:38:53.727Z,8.00
2023-04-17T04:41:34.288Z,8.00
2023-04-17T04:44:06.529Z,8.00
2023-04-17T04:46:38.692Z,8.00
2023-04-17T04:49:11.383Z,8.00
2023-04-17T04:51:43.923Z,8.00
2023-04-17T04:54:15.902Z,7.90
2023-04-17T04:56:49.025Z,8.00
2023-04-17T04:59:21.536Z,8.00
2023-04-17T05:01:53.706Z,8.00
2023-04-17T05:04:27.161Z,8.00
2023-04-17T05:06:59.378Z,8.00
2023-04-17T05:09:35.602Z,8.00
2023-04-17T05:12:08.150Z,8.00
2023-04-17T05:14:40.575Z,8.00
2023-04-17T05:17:12.594Z,8.00
2023-04-17T05:19:44.677Z,8.00
2023-04-17T05:22:17.031Z,8.00
2023-04-17T05:24:49.131Z,8.00
2023-04-17T05:27:21.379Z,8.00
2023-04-17T05:29:53.886Z,8.10
2023-04-17T05:32:26.137Z,8.00
2023-04-17T05:34:59.396Z,8.10
2023-04-17T05:37:32.802Z,8.00
2023-04-17T05:40:06.953Z,8.10
2023-04-17T05:42:39.600Z,8.10
2023-04-17T05:45:16.187Z,8.10
2023-04-17T05:47:49.189Z,8.10
2023-04-17T05:50:21.228Z,8.10
2023-04-17T05:52:53.555Z,8.10
2023-04-17T05:55:26.070Z,8.10
2023-04-17T05:57:58.499Z,8.10
2023-04-17T06:00:31.229Z,8.10
2023-04-17T06:03:04.171Z,8.10
2023-04-17T06:05:36.897Z,8.20
2023-04-17T06:08:09.013Z,8.10
2023-04-17T06:10:41.729Z,8.10
2023-04-17T06:13:16.988Z,8.10
2023-04-17T06:15:50.740Z,8.10
2023-04-17T06:18:22.896Z,8.10
2023-04-17T06:20:55.421Z,8.10
2023-04-17T06:23:27.577Z,8.10
2023-04-17T06:25:59.623Z,8.10
2023-04-17T06:28:32.346Z,8.10
2023-04-17T06:31:04.866Z,8.10
2023-04-17T06:33:37.169Z,8.10
2023-04-17T06:36:09.354Z,8.20
2023-04-17T06:38:41.727Z,8.20
2023-04-17T06:41:14.840Z,8.10
2023-04-17T06:43:47.302Z,8.20
2023-04-17T06:46:19.378Z,8.20
2023-04-17T06:48:52.974Z,8.20
2023-04-17T06:51:29.265Z,8.30
2023-04-17T06:54:01.605Z,8.30
2023-04-17T06:56:33.702Z,8.30
2023-04-17T06:59:06.516Z,8.40
2023-04-17T07:01:40.482Z,8.40
2023-04-17T07:04:13.198Z,8.40
2023-04-17T07:06:45.676Z,8.50
2023-04-17T07:09:18.598Z,8.50
2023-04-17T07:11:50.985Z,8.50
2023-04-17T07:14:23.289Z,8.50
2023-04-17T07:16:55.580Z,8.50
2023-04-17T07:19:27.676Z,8.50
2023-04-17T07:21:59.921Z,8.40
2023-04-17T07:24:34.968Z,8.40
2023-04-17T07:27:07.380Z,8.40
2023-04-17T07:29:39.590Z,8.50
2023-04-17T07:32:12.773Z,8.50
2023-04-17T07:34:46.160Z,8.50
2023-04-17T07:37:19.751Z,8.50
2023-04-17T07:39:53.867Z,8.50
2023-04-17T07:42:26.256Z,8.60
2023-04-17T07:45:00.206Z,8.60
2023-04-17T07:47:32.788Z,8.60
2023-04-17T07:50:05.786Z,8.60
2023-04-17T07:52:38.999Z,8.60
2023-04-17T07:55:11.387Z,8.60
2023-04-17T07:57:46.944Z,8.60
2023-04-17T08:00:21.779Z,8.60
2023-04-17T08:02:55.541Z,8.70
2023-04-17T08:05:30.105Z,8.70
2023-04-17T08:08:02.944Z,8.60
2023-04-17T08:10:36.301Z,8.80
2023-04-17T08:13:09.014Z,8.80
2023-04-17T08:15:41.447Z,8.90
2023-04-17T08:18:15.158Z,9.00
2023-04-17T08:20:47.534Z,9.00
2023-04-17T08:23:19.674Z,9.10
2023-04-17T08:25:51.910Z,9.20
2023-04-17T08:28:24.768Z,9.30
2023-04-17T08:30:57.406Z,9.50
2023-04-17T08:33:29.503Z,9.60
2023-04-17T08:36:03.602Z,9.60
2023-04-17T08:38:37.013Z,9.60
2023-04-17T08:41:13.408Z,9.70
2023-04-17T08:43:58.741Z,9.70
2023-04-17T08:46:34.683Z,9.80
2023-04-17T08:49:07.674Z,9.80
2023-04-17T08:51:39.998Z,9.80
2023-04-17T08:54:13.077Z,9.70
2023-04-17T08:56:45.345Z,9.80
2023-04-17T08:59:18.042Z,9.70
2023-04-17T09:02:02.883Z,9.70
2023-04-17T09:04:39.861Z,9.70
2023-04-17T09:07:15.882Z,9.80
2023-04-17T09:09:54.972Z,9.80
2023-04-17T09:12:27.585Z,9.90
2023-04-17T09:14:59.790Z,9.90
2023-04-17T09:17:45.664Z,9.90
2023-04-17T09:20:17.851Z,9.90
2023-04-17T09:23:02.756Z,9.90
2023-04-17T09:25:35.152Z,10.00
2023-04-17T09:28:12.751Z,10.00
2023-04-17T09:30:45.425Z,10.10
2023-04-17T09:33:17.717Z,10.10
2023-04-17T09:35:49.879Z,10.20
2023-04-17T09:38:48.698Z,10.30
2023-04-17T09:41:29.645Z,10.30
2023-04-17T09:44:06.888Z,10.30
2023-04-17T09:46:48.416Z,10.40
2023-04-17T09:49:29.490Z,10.40
2023-04-17T09:52:04.805Z,10.40
2023-04-17T09:54:39.896Z,10.40
2023-04-17T09:57:13.977Z,10.40
2023-04-17T09:59:50.689Z,10.30
2023-04-17T10:02:23.885Z,10.30
2023-04-17T10:04:57.198Z,10.30
2023-04-17T10:07:30.075Z,10.30
2023-04-17T10:10:04.285Z,10.40
2023-04-17T10:12:41.108Z,10.50
2023-04-17T10:15:14.802Z,10.60
2023-04-17T10:17:48.478Z,10.80
2023-04-17T10:20:23.975Z,11.10
2023-04-17T10:23:28.894Z,11.40
2023-04-17T10:26:25.454Z,11.70
2023-04-17T10:29:08.080Z,11.80
2023-04-17T10:32:09.995Z,11.90
2023-04-17T10:34:45.263Z,12.10
2023-04-17T10:37:19.371Z,12.20
2023-04-17T10:40:12.158Z,12.20
2023-04-17T10:43:20.564Z,12.10
2023-04-17T10:46:03.779Z,12.00
2023-04-17T10:48:52.853Z,11.90
2023-04-17T10:51:27.947Z,11.80
2023-04-17T10:54:16.555Z,11.80
2023-04-17T10:56:54.118Z,11.80
2023-04-17T10:59:30.254Z,11.70
2023-04-17T11:02:04.891Z,11.70
2023-04-17T11:04:38.917Z,11.60
2023-04-17T11:07:12.768Z,11.60
2023-04-17T11:09:52.060Z,11.50
2023-04-17T11:12:24.218Z,11.30
2023-04-17T11:15:02.862Z,11.20
2023-04-17T11:17:40.027Z,11.20
2023-04-17T11:20:28.382Z,11.10
2023-04-17T11:23:03.695Z,11.00
2023-04-17T11:25:37.888Z,11.10
2023-04-17T11:28:12.002Z,11.10
2023-04-17T11:30:45.278Z,11.10
2023-04-17T11:33:17.524Z,11.10
2023-04-17T11:35:53.167Z,11.20
2023-04-17T11:38:25.719Z,11.20
2023-04-17T11:40:59.492Z,11.20
2023-04-17T11:43:36.928Z,11.10
2023-04-17T11:46:09.982Z,11.00
2023-04-17T11:48:44.958Z,11.00
2023-04-17T11:51:22.432Z,10.90
2023-04-17T11:53:56.029Z,10.90
2023-04-17T11:56:30.048Z,10.90
2023-04-17T11:59:05.094Z,10.90
2023-04-17T12:01:52.351Z,11.00
2023-04-17T12:04:25.677Z,11.10
2023-04-17T12:07:04.057Z,11.10
2023-04-17T12:09:37.796Z,11.20
2023-04-17T12:12:10.263Z,11.30
2023-04-17T12:14:42.589Z,11.30
2023-04-17T12:17:14.758Z,11.40
2023-04-17T12:19:47.265Z,11.60
2023-04-17T12:22:19.935Z,11.80
2023-04-17T12:24:52.182Z,12.10
2023-04-17T12:27:24.364Z,12.30
2023-04-17T12:29:56.453Z,12.50
2023-04-17T12:32:28.585Z,12.70
2023-04-17T12:35:01.066Z,12.90
2023-04-17T12:37:33.705Z,13.20
2023-04-17T12:40:07.044Z,13.20
2023-04-17T12:42:48.771Z,13.20
2023-04-17T12:45:21.894Z,13.10
2023-04-17T12:47:54.600Z,12.90
2023-04-17T12:50:27.199Z,12.70
2023-04-17T12:52:59.590Z,12.50
2023-04-17T12:55:32.668Z,12.40
2023-04-17T12:58:10.623Z,12.10
2023-04-17T13:00:44.418Z,11.90
2023-04-17T13:03:17.232Z,11.80
2023-04-17T13:05:49.747Z,11.80
2023-04-17T13:08:24.220Z,11.80
2023-04-17T13:10:56.710Z,11.70
2023-04-17T13:13:28.801Z,11.70
2023-04-17T13:16:01.353Z,11.70
2023-04-17T13:18:33.798Z,11.70
2023-04-17T13:21:06.633Z,11.70
2023-04-17T13:23:38.961Z,11.70
2023-04-17T13:26:11.006Z,11.60
2023-04-17T13:28:42.998Z,11.60
2023-04-17T13:31:15.198Z,11.50
2023-04-17T13:33:47.424Z,11.40
2023-04-17T13:36:19.908Z,11.40
2023-04-17T13:38:52.003Z,11.40
2023-04-17T13:41:24.296Z,11.40
2023-04-17T13:43:56.828Z,11.40
2023-04-17T13:46:29.514Z,11.30
2023-04-17T13:49:15.256Z,11.30
2023-04-17T13:51:48.079Z,11.30
2023-04-17T13:54:21.678Z,11.20
2023-04-17T13:56:54.267Z,11.20
2023-04-17T13:59:26.543Z,11.30
2023-04-17T14:02:01.612Z,11.30
2023-04-17T14:04:35.230Z,11.30
2023-04-17T14:07:07.584Z,11.30
2023-04-17T14:09:39.684Z,11.40
2023-04-17T14:12:12.262Z,11.40
2023-04-17T14:14:50.686Z,11.50
2023-04-17T14:17:22.859Z,11.50
2023-04-17T14:19:55.174Z,11.60
2023-04-17T14:22:27.354Z,11.70
2023-04-17T14:24:59.764Z,11.80
2023-04-17T14:27:32.215Z,11.80
2023-04-17T14:30:08.108Z,11.90
2023-04-17T14:32:40.578Z,11.90
2023-04-17T14:35:13.379Z,12.00
2023-04-17T14:37:45.792Z,12.00
2023-04-17T14:40:18.084Z,12.10
2023-04-17T14:42:54.522Z,12.10
2023-04-17T14:45:26.997Z,12.20
2023-04-17T14:47:59.454Z,12.30
2023-04-17T14:50:31.856Z,12.40
2023-04-17T14:53:04.697Z,12.40
2023-04-17T14:55:37.036Z,12.40
2023-04-17T14:58:09.389Z,12.40
2023-04-17T15:00:42.456Z,12.40
2023-04-17T15:03:15.191Z,12.50
2023-04-17T15:05:47.547Z,12.60
2023-04-17T15:08:20.202Z,12.50
2023-04-17T15:10:52.669Z,12.50
2023-04-17T15:13:25.213Z,12.50
2023-04-17T15:15:58.055Z,12.50
2023-04-17T15:18:30.944Z,12.40
2023-04-17T15:21:03.409Z,12.30
2023-04-17T15:23:46.052Z,12.20
2023-04-17T15:26:18.195Z,12.20
2023-04-17T15:28:50.536Z,12.10
2023-04-17T15:31:22.892Z,12.00
2023-04-17T15:33:55.302Z,12.00
2023-04-17T15:36:33.626Z,12.00
2023-04-17T15:39:06.327Z,11.90
2023-04-17T15:41:41.747Z,11.90
2023-04-17T15:44:13.939Z,11.90
2023-04-17T15:46:46.495Z,12.10
2023-04-17T15:49:18.516Z,12.20
2023-04-17T15:51:50.928Z,12.20
2023-04-17T15:54:23.295Z,12.20
2023-04-17T15:56:56.795Z,12.10
2023-04-17T15:59:29.265Z,12.10
2023-04-17T16:02:02.958Z,12.00
2023-04-17T16:04:35.530Z,12.00
2023-04-17T16:07:08.146Z,11.90
2023-04-17T16:09:44.277Z,11.80
2023-04-17T16:12:17.703Z,11.80
2023-04-17T16:14:50.076Z,11.80
2023-04-17T16:17:22.275Z,11.70
2023-04-17T16:19:54.576Z,11.70
2023-04-17T16:22:26.682Z,11.60
2023-04-17T16:24:58.995Z,11.60
2023-04-17T16:27:32.576Z,11.50
2023-04-17T16:30:09.541Z,11.40
2023-04-17T16:32:44.396Z,11.40
2023-04-17T16:35:19.349Z,11.40
2023-04-17T16:37:51.960Z,11.30
2023-04-17T16:40:26.716Z,11.30
2023-04-17T16:43:02.695Z,11.30
2023-04-17T16:45:37.620Z,11.20
2023-04-17T16:48:11.380Z,11.10
2023-04-17T16:50:44.460Z,11.10
2023-04-17T16:53:18.074Z,11.00
2023-04-17T16:55:52.364Z,11.00
2023-04-17T16:58:24.991Z,11.00
2023-04-17T17:00:57.539Z,11.00
2023-04-17T17:03:30.297Z,11.00
2023-04-17T17:06:07.280Z,10.90
2023-04-17T17:08:41.677Z,10.90
2023-04-17T17:11:20.136Z,10.90
2023-04-17T17:13:53.789Z,10.80
2023-04-17T17:16:26.929Z,10.80
2023-04-17T17:19:00.849Z,10.70
2023-04-17T17:21:33.431Z,10.70
2023-04-17T17:24:06.093Z,10.70
2023-04-17T17:26:38.875Z,10.70
2023-04-17T17:29:11.576Z,10.60
2023-04-17T17:31:44.366Z,10.60
2023-04-17T17:34:26.130Z,10.50
2023-04-17T17:36:59.066Z,10.50
2023-04-17T17:39:31.301Z,10.40
2023-04-17T17:42:08.633Z,10.40
2023-04-17T17:44:41.269Z,10.40
2023-04-17T17:47:13.864Z,10.40
2023-04-17T17:50:42.714Z,10.30
2023-04-17T17:53:17.613Z,10.30
2023-04-17T17:56:02.626Z,10.30
2023-04-17T17:58:36.522Z,10.20
2023-04-17T18:01:11.824Z,10.20
2023-04-17T18:03:45.505Z,10.20
2023-04-17T18:06:20.129Z,10.20
2023-04-17T18:08:53.146Z,10.10
2023-04-17T18:11:25.660Z,10.10
2023-04-17T18:14:00.838Z,10.10
2023-04-17T18:16:33.864Z,10.10
2023-04-17T18:27:39.158Z,10.00
2023-04-17T19:09:57.180Z,9.50
2023-04-17T19:12:43.399Z,9.50
2023-04-17T19:30:47.605Z,9.30
2023-04-17T19:33:22.179Z,9.30
2023-04-17T19:35:55.871Z,9.20
2023-04-17T19:38:32.108Z,9.20
2023-04-17T19:41:51.783Z,9.20
2023-04-17T19:47:31.325Z,9.20
2023-04-17T19:50:08.014Z,9.10
2023-04-17T19:52:43.718Z,9.00
2023-04-17T19:55:17.411Z,9.00
2023-04-17T19:57:52.732Z,9.00
2023-04-17T20:00:29.248Z,8.90
2023-04-17T20:03:02.733Z,8.90
2023-04-17T20:05:36.624Z,8.80
2023-04-17T20:08:09.917Z,8.80
2023-04-17T20:10:42.911Z,8.70
2023-04-17T20:13:16.410Z,8.70
2023-04-17T20:15:49.661Z,8.60
2023-04-17T20:18:23.095Z,8.60
2023-04-17T20:20:56.989Z,8.50
2023-04-17T20:23:30.185Z,8.50
2023-04-17T20:29:57.748Z,8.40
2023-04-17T20:32:31.138Z,8.40
2023-04-17T20:35:04.156Z,8.30
2023-04-17T20:37:38.758Z,8.30
2023-04-17T20:40:14.612Z,8.20
2023-04-17T20:42:48.722Z,8.20
2023-04-17T20:45:21.566Z,8.10
2023-04-17T20:47:57.014Z,8.10
2023-04-17T20:50:30.071Z,8.10
2023-04-17T20:53:03.380Z,8.10
2023-04-17T20:55:38.516Z,8.00
2023-04-17T20:58:11.405Z,8.00
2023-04-17T21:00:54.424Z,8.00
2023-04-17T21:03:34.344Z,8.00
2023-04-17T21:06:07.355Z,7.90
2023-04-17T21:08:40.240Z,7.90
2023-04-17T21:11:13.782Z,7.90
2023-04-17T21:13:46.736Z,7.90
2023-04-17T21:16:19.550Z,7.90
2023-04-17T21:18:52.214Z,7.90
2023-04-17T21:21:25.051Z,7.90
2023-04-17T21:23:57.936Z,7.90
2023-04-17T21:26:30.782Z,7.80
2023-04-17T21:29:03.352Z,7.80
2023-04-17T21:31:35.911Z,7.80
2023-04-17T21:34:10.728Z,7.70
2023-04-17T21:36:43.132Z,7.70
2023-04-17T21:39:16.182Z,7.70
2023-04-17T21:41:48.813Z,7.70
2023-04-17T21:44:20.951Z,7.70
2023-04-17T21:46:53.161Z,7.80
2023-04-17T21:49:25.381Z,7.80
2023-04-17T21:51:57.574Z,7.80
2023-04-17T21:54:29.812Z,7.80
2023-04-17T21:57:02.320Z,7.80
2023-04-17T21:59:35.020Z,7.80
2023-04-17T22:02:07.385Z,7.80
2023-04-17T22:04:39.564Z,7.80
2023-04-17T22:07:12.035Z,7.80
2023-04-17T22:09:44.929Z,7.80
2023-04-17T22:12:19.857Z,7.80
2023-04-17T22:14:52.098Z,7.90
2023-04-17T22:17:24.734Z,7.80
2023-04-17T22:19:57.205Z,7.90
2023-04-17T22:22:29.363Z,7.90
2023-04-17T22:25:01.916Z,7.80
2023-04-17T22:27:34.178Z,7.90
2023-04-17T22:30:07.041Z,7.90
2023-04-17T22:32:39.502Z,7.90
2023-04-17T22:35:11.845Z,7.80
2023-04-17T22:37:44.334Z,7.90
2023-04-17T22:40:16.447Z,7.80
2023-04-17T22:42:50.190Z,7.80
2023-04-17T22:45:22.186Z,7.80
2023-04-17T22:47:54.467Z,7.80
2023-04-17T22:50:26.650Z,7.80
2023-04-17T22:53:01.404Z,7.80
2023-04-17T22:55:34.003Z,7.80
2023-04-17T22:58:07.027Z,7.80
2023-04-17T23:00:39.264Z,7.90
2023-04-17T23:03:11.642Z,7.80
2023-04-17T23:05:43.697Z,7.80
2023-04-17T23:08:15.984Z,7.80
2023-04-17T23:10:54.942Z,7.80
2023-04-17T23:13:28.915Z,7.80
2023-04-17T23:16:02.447Z,7.80
2023-04-17T23:18:37.348Z,7.70
2023-04-17T23:21:09.489Z,7.70
2023-04-17T23:23:42.127Z,7.70
2023-04-17T23:26:14.941Z,7.70
2023-04-17T23:28:47.395Z,7.70
2023-04-17T23:31:19.440Z,7.60
2023-04-17T23:33:51.505Z,7.60
2023-04-17T23:36:23.572Z,7.60
2023-04-17T23:38:55.903Z,7.70
2023-04-17T23:41:28.217Z,7.70
2023-04-17T23:44:00.515Z,7.60
2023-04-17T23:46:33.677Z,7.70
2023-04-17T23:49:07.014Z,7.70
2023-04-17T23:51:39.479Z,7.70
2023-04-17T23:54:11.964Z,7.70
2023-04-17T23:56:44.444Z,7.70
2023-04-17T23:59:16.687Z,7.70
